createdAt,value
2022-12-07T00:01:47.367Z,18.85
2022-12-07T00:04:17.777Z,17.98
2022-12-07T00:06:48.558Z,19.45
2022-12-07T00:09:18.107Z,19.00
2022-12-07T00:11:47.462Z,18.02
2022-12-07T00:14:17.357Z,18.77
2022-12-07T00:16:46.808Z,17.42
2022-12-07T00:19:16.366Z,19.65
2022-12-07T00:21:45.235Z,19.65
2022-12-07T00:24:14.852Z,19.05
2022-12-07T00:26:44.695Z,19.55
2022-12-07T00:29:21.301Z,21.02
2022-12-07T00:31:50.651Z,22.77
2022-12-07T00:34:21.723Z,22.60
2022-12-07T00:36:50.545Z,24.83
2022-12-07T00:39:19.852Z,25.98
2022-12-07T00:41:48.911Z,25.60
2022-12-07T00:44:18.105Z,26.67
2022-12-07T00:46:47.711Z,27.63
2022-12-07T00:49:17.096Z,27.25
2022-12-07T00:51:45.890Z,27.08
2022-12-07T00:54:14.698Z,26.77
2022-12-07T00:56:43.867Z,26.08
2022-12-07T00:59:14.521Z,27.27
2022-12-07T01:01:43.990Z,25.90
2022-12-07T01:04:13.352Z,26.85
2022-12-07T01:06:42.216Z,26.92
2022-12-07T01:09:11.404Z,29.23
2022-12-07T01:11:40.618Z,27.13
2022-12-07T01:14:09.924Z,27.92
2022-12-07T01:16:39.990Z,27.98
2022-12-07T01:19:09.476Z,27.27
2022-12-07T01:21:42.318Z,28.10
2022-12-07T01:24:12.572Z,18.48
2022-12-07T01:26:41.953Z,18.85
2022-12-07T01:29:11.293Z,19.92
2022-12-07T01:31:40.676Z,20.63
2022-12-07T01:34:10.738Z,19.00
2022-12-07T01:36:40.317Z,17.67
2022-12-07T01:39:09.784Z,19.40
2022-12-07T01:41:44.991Z,20.65
2022-12-07T01:44:27.218Z,18.88
2022-12-07T01:46:58.102Z,19.15
2022-12-07T01:49:49.181Z,18.70
2022-12-07T01:52:26.855Z,17.77
2022-12-07T01:54:59.148Z,22.23
2022-12-07T01:57:28.618Z,20.53
2022-12-07T01:59:58.097Z,18.10
2022-12-07T02:03:06.425Z,19.52
2022-12-07T02:05:36.661Z,19.33
2022-12-07T02:08:05.790Z,19.40
2022-12-07T02:10:42.368Z,18.73
2022-12-07T02:13:19.392Z,19.00
2022-12-07T02:16:07.677Z,17.80
2022-12-07T02:19:03.800Z,17.77
2022-12-07T02:21:57.720Z,16.52
2022-12-07T02:24:45.488Z,17.83
2022-12-07T02:27:39.240Z,17.77
2022-12-07T02:32:40.096Z,18.67
2022-12-07T02:35:12.734Z,17.02
2022-12-07T02:37:50.840Z,17.45
2022-12-07T02:40:56.911Z,18.35
2022-12-07T02:43:30.196Z,16.80
2022-12-07T02:46:02.599Z,18.75
2022-12-07T02:48:31.541Z,17.75
2022-12-07T02:51:00.302Z,18.27
2022-12-07T02:53:37.072Z,19.08
2022-12-07T02:56:33.071Z,21.20
2022-12-07T02:59:20.903Z,18.50
2022-12-07T03:02:11.444Z,19.63
2022-12-07T03:04:52.156Z,21.50
2022-12-07T03:07:27.269Z,20.80
2022-12-07T03:10:03.254Z,20.52
2022-12-07T03:13:04.668Z,19.48
2022-12-07T03:15:42.411Z,20.80
2022-12-07T03:18:13.910Z,19.80
2022-12-07T03:20:44.282Z,21.10
2022-12-07T03:23:14.473Z,22.67
2022-12-07T03:25:47.507Z,16.30
2022-12-07T03:28:18.290Z,29.08
2022-12-07T03:30:58.679Z,30.35
2022-12-07T03:33:58.640Z,31.83
2022-12-07T03:36:56.010Z,29.80
2022-12-07T03:39:27.122Z,32.53
2022-12-07T03:41:56.794Z,29.80
2022-12-07T03:44:26.084Z,30.20
2022-12-07T03:46:58.639Z,31.73
2022-12-07T03:49:33.877Z,30.38
2022-12-07T03:52:13.994Z,29.42
2022-12-07T03:55:01.239Z,30.85
2022-12-07T03:57:30.690Z,29.55
2022-12-07T04:00:00.070Z,29.25
2022-12-07T04:02:30.306Z,29.60
2022-12-07T04:04:59.243Z,30.55
2022-12-07T04:07:28.684Z,31.10
2022-12-07T04:09:58.167Z,29.90
2022-12-07T04:12:27.407Z,29.02
2022-12-07T04:14:56.355Z,29.42
2022-12-07T04:17:25.598Z,29.38
2022-12-07T04:19:54.496Z,32.25
2022-12-07T04:22:23.934Z,30.08
2022-12-07T04:24:53.594Z,30.85
2022-12-07T04:27:22.415Z,31.27
2022-12-07T04:29:51.651Z,31.75
2022-12-07T04:32:20.577Z,32.55
2022-12-07T04:34:55.191Z,31.73
2022-12-07T04:37:25.202Z,30.05
2022-12-07T04:39:54.596Z,30.08
2022-12-07T04:42:24.392Z,28.77
2022-12-07T04:44:53.695Z,27.60
2022-12-07T04:47:22.807Z,28.63
2022-12-07T04:49:52.115Z,28.08
2022-12-07T04:52:21.764Z,27.67
2022-12-07T04:54:51.174Z,28.02
2022-12-07T04:57:19.931Z,26.88
2022-12-07T04:59:49.148Z,25.27
2022-12-07T05:02:18.077Z,25.05
2022-12-07T05:04:46.868Z,24.95
2022-12-07T05:07:16.040Z,24.95
2022-12-07T05:09:45.363Z,22.45
2022-12-07T05:12:14.794Z,23.15
2022-12-07T05:14:44.174Z,23.60
2022-12-07T05:17:14.207Z,23.70
2022-12-07T05:19:43.167Z,21.90
2022-12-07T05:22:12.944Z,22.80
2022-12-07T05:24:45.423Z,19.38
2022-12-07T05:27:14.920Z,19.08
2022-12-07T05:29:43.824Z,16.50
2022-12-07T05:32:12.757Z,15.65
2022-12-07T05:34:41.651Z,12.85
2022-12-07T05:37:17.267Z,10.45
2022-12-07T05:42:16.351Z,9.02
2022-12-07T05:44:46.689Z,8.05
2022-12-07T05:47:15.953Z,7.32
2022-12-07T05:49:48.247Z,6.30
2022-12-07T05:52:17.852Z,5.97
2022-12-07T05:54:50.085Z,6.10
2022-12-07T05:57:19.323Z,5.20
2022-12-07T05:59:48.266Z,5.03
2022-12-07T06:02:19.607Z,4.05
2022-12-07T06:04:57.909Z,4.65
2022-12-07T06:07:26.931Z,4.45
2022-12-07T06:09:56.667Z,4.28
2022-12-07T06:12:39.941Z,3.88
2022-12-07T06:15:11.789Z,3.22
2022-12-07T06:17:41.545Z,3.40
2022-12-07T06:20:11.068Z,3.03
2022-12-07T06:22:40.713Z,2.60
2022-12-07T06:25:10.412Z,2.88
2022-12-07T06:27:39.151Z,2.72
2022-12-07T06:30:10.700Z,2.90
2022-12-07T06:32:40.022Z,3.08
2022-12-07T06:35:09.831Z,3.15
2022-12-07T06:37:39.362Z,3.88
2022-12-07T06:40:09.686Z,4.43
2022-12-07T06:42:38.824Z,4.07
2022-12-07T06:45:08.597Z,4.10
2022-12-07T06:47:43.203Z,4.13
2022-12-07T06:50:16.723Z,4.18
2022-12-07T06:52:45.479Z,4.95
2022-12-07T06:55:14.311Z,4.72
2022-12-07T06:57:43.727Z,4.43
2022-12-07T07:00:19.889Z,3.63
2022-12-07T07:02:51.343Z,4.03
2022-12-07T07:05:23.628Z,3.75
2022-12-07T07:08:20.854Z,3.65
2022-12-07T07:10:42.100Z,3.53
2022-12-07T07:13:15.448Z,3.30
2022-12-07T07:15:45.435Z,4.68
2022-12-07T07:18:17.754Z,4.47
2022-12-07T07:20:46.794Z,4.50
2022-12-07T07:23:16.090Z,4.55
2022-12-07T07:25:47.009Z,4.00
2022-12-07T07:28:19.343Z,5.07
2022-12-07T07:30:48.896Z,3.90
2022-12-07T07:33:20.056Z,4.80
2022-12-07T07:35:49.583Z,4.13
2022-12-07T07:38:18.868Z,3.50
2022-12-07T07:40:47.895Z,3.70
2022-12-07T07:43:23.440Z,3.80
2022-12-07T07:45:52.599Z,3.60
2022-12-07T07:48:21.915Z,3.78
2022-12-07T07:50:51.160Z,2.83
2022-12-07T07:53:20.112Z,3.58
2022-12-07T07:55:56.314Z,2.97
2022-12-07T07:58:25.645Z,2.42
2022-12-07T08:00:55.282Z,2.03
2022-12-07T08:03:24.605Z,1.70
2022-12-07T08:06:13.177Z,1.55
2022-12-07T08:08:43.779Z,1.67
2022-12-07T08:11:13.708Z,1.48
2022-12-07T08:13:42.649Z,1.00
2022-12-07T08:16:12.961Z,1.00
2022-12-07T08:18:42.752Z,1.25
2022-12-07T08:21:15.868Z,0.88
2022-12-07T08:23:45.117Z,0.90
2022-12-07T08:26:15.632Z,1.02
2022-12-07T08:28:46.954Z,1.20
2022-12-07T08:31:19.371Z,0.93
2022-12-07T08:33:49.297Z,1.38
2022-12-07T08:36:18.947Z,2.05
2022-12-07T08:39:22.455Z,1.70
2022-12-07T08:41:37.655Z,2.50
2022-12-07T08:44:07.032Z,2.28
2022-12-07T08:46:36.195Z,2.47
2022-12-07T08:49:17.558Z,2.10
2022-12-07T08:51:47.930Z,1.70
2022-12-07T08:54:18.401Z,1.30
2022-12-07T08:56:47.794Z,2.67
2022-12-07T08:59:17.420Z,2.60
2022-12-07T09:01:46.418Z,2.25
2022-12-07T09:04:18.352Z,2.22
2022-12-07T09:06:47.687Z,1.77
2022-12-07T09:09:16.809Z,2.28
2022-12-07T09:11:47.299Z,2.75
2022-12-07T09:14:16.875Z,3.08
2022-12-07T09:16:47.830Z,2.40
2022-12-07T09:19:16.954Z,2.72
2022-12-07T09:21:45.903Z,2.05
2022-12-07T09:24:15.745Z,2.78
2022-12-07T09:26:45.052Z,2.85
2022-12-07T09:29:14.014Z,3.03
2022-12-07T09:31:43.405Z,1.90
2022-12-07T09:34:12.701Z,3.42
2022-12-07T09:36:42.008Z,3.53
2022-12-07T09:39:11.185Z,3.25
2022-12-07T09:41:41.443Z,4.47
2022-12-07T09:44:14.810Z,4.78
2022-12-07T09:46:45.000Z,3.47
2022-12-07T09:49:18.993Z,4.18
2022-12-07T09:51:48.197Z,3.55
2022-12-07T09:54:17.813Z,2.75
2022-12-07T09:56:46.947Z,3.45
2022-12-07T09:59:19.846Z,2.50
2022-12-07T10:04:23.487Z,2.85
2022-12-07T10:06:53.404Z,1.88
2022-12-07T10:09:23.577Z,2.75
2022-12-07T10:12:11.575Z,4.68
2022-12-07T10:17:36.335Z,4.72
2022-12-07T10:20:28.562Z,5.35
2022-12-07T10:23:03.807Z,5.78
2022-12-07T10:25:35.576Z,5.65
2022-12-07T10:28:11.329Z,4.80
2022-12-07T10:31:04.882Z,5.63
2022-12-07T10:36:04.059Z,7.50
2022-12-07T10:38:34.571Z,7.25
2022-12-07T10:41:11.242Z,5.38
2022-12-07T10:43:45.860Z,8.13
2022-12-07T10:46:40.114Z,7.82
2022-12-07T10:49:32.934Z,8.00
2022-12-07T10:52:22.523Z,7.78
2022-12-07T10:55:01.108Z,7.13
2022-12-07T10:57:48.005Z,6.22
2022-12-07T11:00:27.802Z,7.57
2022-12-07T11:03:14.151Z,7.63
2022-12-07T11:06:00.658Z,8.07
2022-12-07T11:09:01.422Z,6.45
2022-12-07T11:11:55.941Z,5.50
2022-12-07T11:14:33.716Z,12.65
2022-12-07T11:17:52.148Z,15.63
2022-12-07T11:20:44.894Z,16.90
2022-12-07T11:23:25.670Z,17.37
2022-12-07T11:26:29.805Z,17.48
2022-12-07T11:29:34.270Z,17.85
2022-12-07T11:32:15.697Z,15.20
2022-12-07T11:35:10.125Z,14.95
2022-12-07T11:40:23.771Z,14.00
2022-12-07T11:43:19.952Z,13.63
2022-12-07T11:45:54.054Z,11.18
2022-12-07T11:48:27.820Z,12.02
2022-12-07T11:50:59.342Z,13.13
2022-12-07T11:53:36.577Z,12.35
2022-12-07T11:56:19.407Z,12.52
2022-12-07T11:59:02.273Z,13.48
2022-12-07T12:01:40.103Z,11.77
2022-12-07T12:04:11.746Z,13.05
2022-12-07T12:06:42.325Z,12.30
2022-12-07T12:15:43.746Z,11.32
2022-12-07T12:18:33.950Z,10.95
2022-12-07T12:21:16.734Z,13.32
2022-12-07T12:24:02.117Z,12.52
2022-12-07T12:26:33.474Z,14.43
2022-12-07T12:29:40.907Z,15.50
2022-12-07T12:32:18.243Z,17.08
2022-12-07T12:35:01.698Z,24.27
2022-12-07T12:40:17.597Z,28.73
2022-12-07T12:42:50.521Z,27.48
2022-12-07T12:45:23.940Z,28.42
2022-12-07T12:47:57.663Z,27.05
2022-12-07T12:50:30.950Z,30.00
2022-12-07T12:53:01.044Z,26.30
2022-12-07T12:56:05.030Z,24.45
2022-12-07T12:58:43.146Z,22.52
2022-12-07T13:01:44.469Z,21.17
2022-12-07T13:04:27.165Z,19.38
2022-12-07T13:06:56.540Z,19.80
2022-12-07T13:09:30.656Z,19.67
2022-12-07T13:12:07.527Z,17.30
2022-12-07T13:14:42.607Z,17.20
2022-12-07T13:17:33.150Z,18.88
2022-12-07T13:20:06.731Z,19.13
2022-12-07T13:22:40.145Z,20.80
2022-12-07T13:25:31.943Z,19.88
2022-12-07T13:28:19.386Z,27.45
2022-12-07T13:31:20.302Z,27.98
2022-12-07T13:33:50.512Z,24.17
2022-12-07T13:36:24.774Z,25.27
2022-12-07T13:38:56.402Z,24.25
2022-12-07T13:41:31.755Z,24.23
2022-12-07T13:44:12.169Z,25.27
2022-12-07T13:47:04.915Z,27.85
2022-12-07T13:49:38.677Z,28.92
2022-12-07T13:52:20.851Z,28.35
2022-12-07T13:54:57.206Z,28.48
2022-12-07T13:57:28.003Z,26.85
2022-12-07T13:59:56.853Z,26.55
2022-12-07T14:02:34.820Z,27.83
2022-12-07T14:05:15.272Z,29.30
2022-12-07T14:07:58.086Z,34.42
2022-12-07T14:10:35.171Z,35.78
2022-12-07T14:13:25.455Z,35.60
2022-12-07T14:15:56.258Z,32.92
2022-12-07T14:18:30.471Z,35.45
2022-12-07T14:21:20.230Z,35.17
2022-12-07T14:24:04.129Z,33.65
2022-12-07T14:26:35.742Z,34.25
2022-12-07T14:29:30.116Z,36.20
2022-12-07T14:32:00.449Z,31.05
2022-12-07T14:34:29.645Z,30.92
2022-12-07T14:36:58.899Z,28.27
2022-12-07T14:39:27.719Z,29.92
2022-12-07T14:41:57.062Z,26.15
2022-12-07T14:44:30.789Z,26.77
2022-12-07T14:49:52.854Z,27.60
2022-12-07T14:55:44.639Z,23.25
2022-12-07T14:58:16.621Z,24.17
2022-12-07T15:00:46.112Z,25.00
2022-12-07T15:03:15.775Z,19.75
2022-12-07T15:05:46.537Z,19.58
2022-12-07T15:08:16.413Z,18.88
2022-12-07T15:10:45.330Z,18.08
2022-12-07T15:13:33.360Z,18.15
2022-12-07T15:16:03.188Z,17.48
2022-12-07T15:18:33.972Z,17.35
2022-12-07T15:21:03.701Z,18.65
2022-12-07T15:23:34.763Z,16.75
2022-12-07T15:26:03.571Z,19.13
2022-12-07T15:28:32.530Z,19.40
2022-12-07T15:31:22.153Z,18.45
2022-12-07T15:33:50.699Z,20.05
2022-12-07T15:36:29.077Z,19.98
2022-12-07T15:39:13.819Z,21.45
2022-12-07T15:41:43.589Z,20.67
2022-12-07T15:44:34.392Z,21.60
2022-12-07T15:47:03.636Z,19.80
2022-12-07T15:49:32.824Z,20.10
2022-12-07T15:52:02.060Z,19.42
2022-12-07T15:54:31.560Z,19.85
2022-12-07T15:57:00.423Z,19.67
2022-12-07T15:59:30.213Z,18.45
2022-12-07T16:01:59.529Z,18.70
2022-12-07T16:04:31.065Z,19.95
2022-12-07T16:07:00.344Z,22.20
2022-12-07T16:09:29.698Z,22.50
2022-12-07T16:11:58.543Z,23.75
2022-12-07T16:14:27.360Z,25.83
2022-12-07T16:16:56.479Z,25.20
2022-12-07T16:19:25.914Z,23.50
2022-12-07T16:21:54.964Z,25.63
2022-12-07T16:24:23.772Z,25.73
2022-12-07T16:26:53.065Z,28.48
2022-12-07T16:29:22.550Z,26.50
2022-12-07T16:31:51.991Z,27.05
2022-12-07T16:34:21.054Z,23.73
2022-12-07T16:37:06.130Z,24.80
2022-12-07T16:39:36.270Z,23.40
2022-12-07T16:42:05.230Z,21.85
2022-12-07T16:44:34.637Z,21.10
2022-12-07T16:47:03.599Z,19.23
2022-12-07T16:49:32.546Z,16.33
2022-12-07T16:52:19.500Z,16.38
2022-12-07T16:54:49.708Z,17.48
2022-12-07T16:57:23.079Z,16.70
2022-12-07T16:59:53.554Z,16.85
2022-12-07T17:02:22.853Z,17.63
2022-12-07T17:04:53.289Z,18.50
2022-12-07T17:07:22.579Z,19.17
2022-12-07T17:09:51.907Z,21.65
2022-12-07T17:12:20.792Z,22.27
2022-12-07T17:15:24.875Z,21.48
2022-12-07T17:18:00.154Z,21.40
2022-12-07T17:20:29.627Z,22.85
2022-12-07T17:22:58.977Z,22.42
2022-12-07T17:25:28.370Z,19.83
2022-12-07T17:27:57.196Z,21.73
2022-12-07T17:30:26.411Z,21.88
2022-12-07T17:32:55.312Z,22.25
2022-12-07T17:35:24.629Z,21.05
2022-12-07T17:37:53.398Z,19.88
2022-12-07T17:40:22.150Z,22.98
2022-12-07T17:42:52.069Z,20.40
2022-12-07T17:45:21.386Z,22.60
2022-12-07T17:47:50.703Z,21.55
2022-12-07T17:50:40.334Z,22.48
2022-12-07T17:53:11.716Z,21.77
2022-12-07T17:56:12.108Z,21.92
2022-12-07T17:58:31.300Z,22.70
2022-12-07T18:01:00.304Z,24.42
2022-12-07T18:03:29.259Z,24.42
2022-12-07T18:05:58.048Z,26.33
2022-12-07T18:08:27.451Z,26.02
2022-12-07T18:11:01.202Z,25.42
2022-12-07T18:13:39.534Z,25.42
2022-12-07T18:16:19.774Z,27.23
2022-12-07T18:18:52.678Z,26.63
2022-12-07T18:21:24.099Z,26.42
2022-12-07T18:23:56.563Z,27.60
2022-12-07T18:26:26.371Z,25.85
2022-12-07T18:28:55.556Z,26.17
2022-12-07T18:31:26.131Z,25.55
2022-12-07T18:33:57.251Z,27.33
2022-12-07T18:36:26.556Z,29.55
2022-12-07T18:38:55.859Z,28.55
2022-12-07T18:41:24.593Z,27.20
2022-12-07T18:43:53.380Z,29.00
2022-12-07T18:46:22.255Z,27.33
2022-12-07T18:48:52.854Z,26.67
2022-12-07T18:51:21.702Z,26.08
2022-12-07T18:53:50.577Z,29.00
2022-12-07T18:56:24.140Z,25.17
2022-12-07T18:59:16.420Z,26.05
2022-12-07T19:01:48.384Z,22.85
2022-12-07T19:04:17.542Z,24.88
2022-12-07T19:06:47.580Z,24.25
2022-12-07T19:09:17.268Z,23.23
2022-12-07T19:11:52.850Z,21.45
2022-12-07T19:14:22.378Z,22.65
2022-12-07T19:16:53.019Z,22.73
2022-12-07T19:19:24.482Z,21.73
2022-12-07T19:21:53.475Z,23.15
2022-12-07T19:24:23.863Z,23.60
2022-12-07T19:26:54.221Z,24.45
2022-12-07T19:29:23.175Z,23.15
2022-12-07T19:31:52.003Z,21.15
2022-12-07T19:34:20.768Z,21.98
2022-12-07T19:36:49.651Z,22.10
2022-12-07T19:39:18.972Z,20.75
2022-12-07T19:41:48.460Z,18.95
2022-12-07T19:44:18.791Z,20.13
2022-12-07T19:46:50.791Z,19.73
2022-12-07T19:49:20.914Z,19.60
2022-12-07T19:51:51.483Z,17.63
2022-12-07T19:54:22.286Z,17.10
2022-12-07T19:56:52.126Z,16.60
2022-12-07T19:59:23.135Z,16.67
2022-12-07T20:01:52.142Z,15.55
2022-12-07T20:04:23.016Z,15.48
2022-12-07T20:06:53.883Z,16.60
2022-12-07T20:09:23.449Z,14.77
2022-12-07T20:12:11.084Z,14.93
2022-12-07T20:14:40.452Z,15.07
2022-12-07T20:17:09.765Z,14.38
2022-12-07T20:19:39.258Z,15.32
2022-12-07T20:22:07.960Z,14.57
2022-12-07T20:24:37.289Z,14.15
2022-12-07T20:27:06.317Z,15.13
2022-12-07T20:29:35.583Z,14.70
2022-12-07T20:32:05.484Z,14.15
2022-12-07T20:34:34.844Z,14.55
2022-12-07T20:37:04.173Z,14.43
2022-12-07T20:39:34.366Z,12.45
2022-12-07T20:42:21.640Z,12.10
2022-12-07T20:44:51.647Z,12.95
2022-12-07T20:47:20.940Z,12.07
2022-12-07T20:49:50.583Z,12.23
2022-12-07T20:52:21.746Z,11.63
2022-12-07T20:54:50.851Z,12.07
2022-12-07T20:57:20.192Z,11.73
2022-12-07T20:59:49.439Z,11.35
2022-12-07T21:02:18.384Z,11.77
2022-12-07T21:04:47.170Z,10.55
2022-12-07T21:07:16.391Z,11.07
2022-12-07T21:09:46.911Z,10.85
2022-12-07T21:12:16.971Z,9.82
2022-12-07T21:14:46.328Z,10.88
2022-12-07T21:17:15.326Z,9.48
2022-12-07T21:19:44.107Z,10.05
2022-12-07T21:22:13.379Z,8.80
2022-12-07T21:24:42.834Z,10.50
2022-12-07T21:27:11.642Z,9.90
2022-12-07T21:29:44.385Z,9.55
2022-12-07T21:32:15.102Z,9.35
2022-12-07T21:34:44.542Z,10.45
2022-12-07T21:37:13.322Z,9.93
2022-12-07T21:39:43.218Z,9.93
2022-12-07T21:42:12.066Z,9.98
2022-12-07T21:44:41.286Z,10.35
2022-12-07T21:47:10.523Z,9.00
2022-12-07T21:49:39.899Z,9.60
2022-12-07T21:52:09.550Z,9.38
2022-12-07T21:54:38.519Z,10.02
2022-12-07T21:57:07.254Z,10.52
2022-12-07T21:59:36.449Z,10.95
2022-12-07T22:02:05.322Z,9.75
2022-12-07T22:04:34.171Z,9.85
2022-12-07T22:07:02.825Z,10.70
2022-12-07T22:09:32.037Z,12.10
2022-12-07T22:12:04.296Z,10.73
2022-12-07T22:14:51.681Z,10.00
2022-12-07T22:17:20.383Z,9.93
2022-12-07T22:19:49.812Z,11.18
2022-12-07T22:22:18.624Z,11.55
2022-12-07T22:24:48.959Z,10.38
2022-12-07T22:27:17.957Z,10.38
2022-12-07T22:29:47.127Z,10.95
2022-12-07T22:32:46.666Z,10.63
2022-12-07T22:35:06.363Z,10.68
2022-12-07T22:37:35.338Z,10.27
2022-12-07T22:40:05.837Z,12.18
2022-12-07T22:42:34.888Z,10.55
2022-12-07T22:45:04.594Z,10.57
2022-12-07T22:47:33.976Z,10.02
2022-12-07T22:50:03.288Z,9.70
2022-12-07T22:52:32.629Z,11.52
2022-12-07T22:55:02.238Z,10.27
2022-12-07T22:57:31.780Z,9.50
2022-12-07T23:00:00.521Z,8.25
2022-12-07T23:02:29.264Z,9.10
2022-12-07T23:04:57.953Z,8.65
2022-12-07T23:07:27.120Z,8.77
2022-12-07T23:09:56.413Z,7.72
2022-12-07T23:12:44.088Z,8.57
2022-12-07T23:15:13.198Z,8.38
2022-12-07T23:17:42.413Z,7.93
2022-12-07T23:20:12.924Z,7.45
2022-12-07T23:22:42.563Z,8.65
2022-12-07T23:25:12.031Z,7.53
2022-12-07T23:27:40.845Z,8.18
2022-12-07T23:30:10.151Z,9.27
2022-12-07T23:32:39.339Z,7.65
2022-12-07T23:35:08.923Z,8.00
2022-12-07T23:37:37.698Z,7.75
2022-12-07T23:40:07.303Z,7.70
2022-12-07T23:42:36.694Z,7.55
2022-12-07T23:45:06.095Z,9.93
2022-12-07T23:47:35.163Z,9.02
2022-12-07T23:50:05.417Z,9.98
2022-12-07T23:52:34.724Z,9.73
2022-12-07T23:55:03.914Z,10.20
2022-12-07T23:57:34.296Z,10.57
